Blackwell, Wisconsin
Current Conditions -  °F | °C
As of 5:54 PM on Saturday 25 Oct 2014 (Local Time) from KIMT Reporting Station
Clear Clear  
Wind Chill: 56°   Ceiling: Unl
Heat Index: 56°   Visibility: 10mi
Dew Point: 20°   Wind: 18mph
Humidity: 25%   Direction: 310°NW
Pressure: 29.8"   Gusts: 30mph
Location:  45.5665°N, 88.6366°W
Report Text: KIMT 252254Z AUTO 31016G26KT 10SM CLR 13/M07 A2980 RMK AO2 PK WND 31026/2250 SLP094 T01331067
Loading
Personal Weather Stations






























Interactive Weather Map
Tropical Storm Tracking
New forecast layout! Learn more

10-Day Weather Forecast

Advertisements
Track Severe Weather on mobile